sensor_id;sensor_type;location;lat;lon;timestamp;pressure;altitude;pressure_sealevel;temperature;humidity
55291;BME280;41155;39.768;2.712;2023-02-18T00:00:51;102906.16;;;9.30;75.90
55291;BME280;41155;39.768;2.712;2023-02-18T00:03:17;102933.94;;;9.45;75.98
55291;BME280;41155;39.768;2.712;2023-02-18T00:05:42;102907.38;;;9.27;75.83
55291;BME280;41155;39.768;2.712;2023-02-18T00:08:07;102931.16;;;9.38;75.69
55291;BME280;41155;39.768;2.712;2023-02-18T00:10:33;102930.72;;;9.35;74.19
55291;BME280;41155;39.768;2.712;2023-02-18T00:12:58;102930.53;;;9.21;74.39
55291;BME280;41155;39.768;2.712;2023-02-18T00:15:26;102932.38;;;9.21;74.35
55291;BME280;41155;39.768;2.712;2023-02-18T00:17:51;102927.84;;;9.21;74.69
55291;BME280;41155;39.768;2.712;2023-02-18T00:20:16;102916.50;;;9.11;75.08
55291;BME280;41155;39.768;2.712;2023-02-18T00:22:42;102881.78;;;8.87;75.44
55291;BME280;41155;39.768;2.712;2023-02-18T00:25:08;102903.16;;;9.03;75.84
55291;BME280;41155;39.768;2.712;2023-02-18T00:27:33;102909.53;;;9.02;75.86
55291;BME280;41155;39.768;2.712;2023-02-18T00:29:58;102916.16;;;9.14;75.78
55291;BME280;41155;39.768;2.712;2023-02-18T00:32:24;102909.66;;;9.09;75.68
55291;BME280;41155;39.768;2.712;2023-02-18T00:34:49;102893.13;;;8.97;75.59
55291;BME280;41155;39.768;2.712;2023-02-18T00:37:16;102924.22;;;9.14;75.51
55291;BME280;41155;39.768;2.712;2023-02-18T00:39:42;102910.28;;;9.11;75.28
55291;BME280;41155;39.768;2.712;2023-02-18T00:42:08;102907.50;;;9.04;75.56
55291;BME280;41155;39.768;2.712;2023-02-18T00:44:33;102903.69;;;8.98;75.50
55291;BME280;41155;39.768;2.712;2023-02-18T00:46:59;102872.94;;;8.78;74.13
55291;BME280;41155;39.768;2.712;2023-02-18T00:49:24;102878.06;;;8.73;73.66
55291;BME280;41155;39.768;2.712;2023-02-18T00:51:50;102912.69;;;8.91;74.78
55291;BME280;41155;39.768;2.712;2023-02-18T00:54:15;102902.13;;;8.74;75.24
55291;BME280;41155;39.768;2.712;2023-02-18T00:56:41;102918.91;;;8.76;76.08
55291;BME280;41155;39.768;2.712;2023-02-18T00:59:06;102909.63;;;8.79;76.14
55291;BME280;41155;39.768;2.712;2023-02-18T01:01:32;102890.41;;;8.67;76.13
55291;BME280;41155;39.768;2.712;2023-02-18T01:03:59;102911.13;;;8.81;76.29
55291;BME280;41155;39.768;2.712;2023-02-18T01:06:24;102886.50;;;8.70;76.54
55291;BME280;41155;39.768;2.712;2023-02-18T01:08:49;102920.53;;;8.86;76.58
55291;BME280;41155;39.768;2.712;2023-02-18T01:11:15;102917.63;;;8.87;76.32
55291;BME280;41155;39.768;2.712;2023-02-18T01:13:41;102920.97;;;8.89;76.46
55291;BME280;41155;39.768;2.712;2023-02-18T01:16:07;102906.78;;;8.80;76.66
55291;BME280;41155;39.768;2.712;2023-02-18T01:18:33;102923.47;;;8.91;75.41
55291;BME280;41155;39.768;2.712;2023-02-18T01:20:59;102890.41;;;8.67;74.68
55291;BME280;41155;39.768;2.712;2023-02-18T01:23:24;102904.25;;;8.64;74.88
55291;BME280;41155;39.768;2.712;2023-02-18T01:25:50;102913.28;;;8.71;74.82
55291;BME280;41155;39.768;2.712;2023-02-18T01:28:16;102898.22;;;8.62;74.93
55291;BME280;41155;39.768;2.712;2023-02-18T01:30:42;102871.47;;;8.46;74.75
55291;BME280;41155;39.768;2.712;2023-02-18T01:33:08;102879.63;;;8.52;75.20
55291;BME280;41155;39.768;2.712;2023-02-18T01:35:37;102882.16;;;8.54;75.46
55291;BME280;41155;39.768;2.712;2023-02-18T01:38:02;102908.13;;;8.62;75.57
55291;BME280;41155;39.768;2.712;2023-02-18T01:40:29;102908.72;;;8.57;75.27
55291;BME280;41155;39.768;2.712;2023-02-18T01:42:55;102885.28;;;8.43;75.77
55291;BME280;41155;39.768;2.712;2023-02-18T01:48:04;102894.28;;;8.50;75.85
55291;BME280;41155;39.768;2.712;2023-02-18T01:50:34;102888.91;;;8.50;76.26
55291;BME280;41155;39.768;2.712;2023-02-18T01:53:00;102872.00;;;8.41;76.22
55291;BME280;41155;39.768;2.712;2023-02-18T01:55:26;102881.88;;;8.49;76.69
55291;BME280;41155;39.768;2.712;2023-02-18T01:57:52;102885.75;;;8.46;76.32
55291;BME280;41155;39.768;2.712;2023-02-18T02:00:19;102890.69;;;8.43;75.68
55291;BME280;41155;39.768;2.712;2023-02-18T02:02:50;102896.53;;;8.46;75.21
55291;BME280;41155;39.768;2.712;2023-02-18T02:05:17;102894.28;;;8.50;75.22
55291;BME280;41155;39.768;2.712;2023-02-18T02:07:44;102899.88;;;8.48;75.58
55291;BME280;41155;39.768;2.712;2023-02-18T02:10:12;102896.56;;;8.38;75.69
55291;BME280;41155;39.768;2.712;2023-02-18T02:35:07;102883.75;;;8.25;75.58
55291;BME280;41155;39.768;2.712;2023-02-18T02:40:59;102874.34;;;8.21;75.33
55291;BME280;41155;39.768;2.712;2023-02-18T02:43:32;102881.06;;;8.25;75.68
55291;BME280;41155;39.768;2.712;2023-02-18T02:48:44;102881.78;;;8.19;75.31
55291;BME280;41155;39.768;2.712;2023-02-18T02:53:50;102857.03;;;8.01;75.99
55291;BME280;41155;39.768;2.712;2023-02-18T02:56:18;102870.44;;;8.09;76.31
55291;BME280;41155;39.768;2.712;2023-02-18T02:58:44;102871.75;;;8.13;76.79
55291;BME280;41155;39.768;2.712;2023-02-18T03:01:28;102875.28;;;8.13;76.20
55291;BME280;41155;39.768;2.712;2023-02-18T03:07:10;102870.63;;;8.07;76.43
55291;BME280;41155;39.768;2.712;2023-02-18T03:15:30;102847.56;;;7.90;76.75
55291;BME280;41155;39.768;2.712;2023-02-18T03:18:04;102871.69;;;7.98;76.61
55291;BME280;41155;39.768;2.712;2023-02-18T03:23:37;102871.06;;;7.96;76.21
55291;BME280;41155;39.768;2.712;2023-02-18T03:26:05;102868.00;;;7.99;76.16
55291;BME280;41155;39.768;2.712;2023-02-18T03:28:30;102816.16;;;7.67;76.15
55291;BME280;41155;39.768;2.712;2023-02-18T03:31:12;102852.50;;;8.01;75.90
55291;BME280;41155;39.768;2.712;2023-02-18T03:33:44;102868.63;;;8.01;75.58
55291;BME280;41155;39.768;2.712;2023-02-18T03:36:11;102860.31;;;7.96;75.87
55291;BME280;41155;39.768;2.712;2023-02-18T03:38:41;102862.69;;;7.91;76.02
55291;BME280;41155;39.768;2.712;2023-02-18T03:41:08;102820.34;;;7.70;75.97
55291;BME280;41155;39.768;2.712;2023-02-18T03:43:34;102848.41;;;7.90;75.71
55291;BME280;41155;39.768;2.712;2023-02-18T03:46:00;102816.81;;;7.69;75.64
55291;BME280;41155;39.768;2.712;2023-02-18T03:48:27;102840.03;;;7.85;75.27
55291;BME280;41155;39.768;2.712;2023-02-18T03:50:52;102817.50;;;7.63;75.53
55291;BME280;41155;39.768;2.712;2023-02-18T03:53:18;102824.38;;;7.66;75.58
55291;BME280;41155;39.768;2.712;2023-02-18T03:55:43;102838.66;;;7.66;76.27
55291;BME280;41155;39.768;2.712;2023-02-18T03:58:08;102842.13;;;7.75;76.82
55291;BME280;41155;39.768;2.712;2023-02-18T04:00:34;102845.47;;;7.77;77.06
55291;BME280;41155;39.768;2.712;2023-02-18T04:03:00;102820.34;;;7.70;76.77
55291;BME280;41155;39.768;2.712;2023-02-18T04:05:25;102831.38;;;7.75;77.22
55291;BME280;41155;39.768;2.712;2023-02-18T04:07:51;102836.06;;;7.81;76.94
55291;BME280;41155;39.768;2.712;2023-02-18T04:10:16;102834.00;;;7.83;76.65
55291;BME280;41155;39.768;2.712;2023-02-18T04:12:42;102836.22;;;7.80;76.52
55291;BME280;41155;39.768;2.712;2023-02-18T04:15:07;102797.09;;;7.54;75.99
55291;BME280;41155;39.768;2.712;2023-02-18T04:17:33;102816.03;;;7.61;75.84
55291;BME280;41155;39.768;2.712;2023-02-18T04:19:59;102804.31;;;7.54;75.89
55291;BME280;41155;39.768;2.712;2023-02-18T04:22:24;102796.97;;;7.47;75.69
55291;BME280;41155;39.768;2.712;2023-02-18T04:24:50;102814.06;;;7.55;75.82
55291;BME280;41155;39.768;2.712;2023-02-18T04:27:15;102835.28;;;7.73;76.11
55291;BME280;41155;39.768;2.712;2023-02-18T04:29:40;102840.00;;;7.70;75.83
55291;BME280;41155;39.768;2.712;2023-02-18T04:32:06;102842.84;;;7.69;76.21
55291;BME280;41155;39.768;2.712;2023-02-18T04:34:31;102821.47;;;7.53;75.68
55291;BME280;41155;39.768;2.712;2023-02-18T04:36:57;102836.16;;;7.65;75.15
55291;BME280;41155;39.768;2.712;2023-02-18T04:39:23;102842.78;;;7.54;75.93
55291;BME280;41155;39.768;2.712;2023-02-18T04:41:48;102841.50;;;7.50;76.09
55291;BME280;41155;39.768;2.712;2023-02-18T04:44:14;102830.63;;;7.43;76.30
55291;BME280;41155;39.768;2.712;2023-02-18T04:46:39;102838.44;;;7.53;76.28
55291;BME280;41155;39.768;2.712;2023-02-18T04:49:05;102841.69;;;7.40;76.83
55291;BME280;41155;39.768;2.712;2023-02-18T04:51:30;102837.00;;;7.42;76.69
55291;BME280;41155;39.768;2.712;2023-02-18T04:53:56;102820.75;;;7.36;77.28
55291;BME280;41155;39.768;2.712;2023-02-18T04:56:21;102821.22;;;7.39;77.53
55291;BME280;41155;39.768;2.712;2023-02-18T04:58:47;102843.50;;;7.48;77.46
55291;BME280;41155;39.768;2.712;2023-02-18T05:01:12;102813.88;;;7.33;77.21
55291;BME280;41155;39.768;2.712;2023-02-18T05:03:38;102840.31;;;7.53;77.33
55291;BME280;41155;39.768;2.712;2023-02-18T05:06:03;102837.63;;;7.53;76.73
55291;BME280;41155;39.768;2.712;2023-02-18T05:08:29;102845.84;;;7.51;76.25
55291;BME280;41155;39.768;2.712;2023-02-18T05:10:54;102793.88;;;7.13;76.45
55291;BME280;41155;39.768;2.712;2023-02-18T05:13:20;102834.72;;;7.31;76.04
55291;BME280;41155;39.768;2.712;2023-02-18T05:15:47;102850.44;;;7.42;75.84
55291;BME280;41155;39.768;2.712;2023-02-18T05:18:13;102805.97;;;7.09;75.68
55291;BME280;41155;39.768;2.712;2023-02-18T05:20:38;102849.50;;;7.35;76.49
55291;BME280;41155;39.768;2.712;2023-02-18T05:23:04;102848.00;;;7.33;75.88
55291;BME280;41155;39.768;2.712;2023-02-18T05:25:29;102847.50;;;7.29;75.90
55291;BME280;41155;39.768;2.712;2023-02-18T05:27:55;102848.47;;;7.36;76.08
55291;BME280;41155;39.768;2.712;2023-02-18T05:30:20;102846.81;;;7.35;76.32
55291;BME280;41155;39.768;2.712;2023-02-18T05:32:46;102854.66;;;7.37;75.83
55291;BME280;41155;39.768;2.712;2023-02-18T05:35:11;102851.91;;;7.22;75.56
55291;BME280;41155;39.768;2.712;2023-02-18T05:37:38;102845.22;;;7.18;75.65
55291;BME280;41155;39.768;2.712;2023-02-18T05:40:04;102847.25;;;7.16;75.46
55291;BME280;41155;39.768;2.712;2023-02-18T05:42:30;102858.59;;;7.26;75.94
55291;BME280;41155;39.768;2.712;2023-02-18T05:44:57;102861.13;;;7.28;75.88
55291;BME280;41155;39.768;2.712;2023-02-18T05:47:23;102858.78;;;7.24;75.74
55291;BME280;41155;39.768;2.712;2023-02-18T05:49:48;102837.38;;;7.08;75.66
55291;BME280;41155;39.768;2.712;2023-02-18T05:52:15;102859.44;;;7.27;75.36
55291;BME280;41155;39.768;2.712;2023-02-18T05:54:41;102866.66;;;7.26;75.43
55291;BME280;41155;39.768;2.712;2023-02-18T05:57:06;102856.69;;;7.12;75.39
55291;BME280;41155;39.768;2.712;2023-02-18T05:59:32;102861.34;;;7.18;75.24
55291;BME280;41155;39.768;2.712;2023-02-18T06:01:58;102804.44;;;6.83;76.08
55291;BME280;41155;39.768;2.712;2023-02-18T06:04:24;102836.56;;;6.99;76.64
55291;BME280;41155;39.768;2.712;2023-02-18T06:06:50;102851.00;;;7.07;77.08
55291;BME280;41155;39.768;2.712;2023-02-18T06:09:15;102842.09;;;7.06;77.02
55291;BME280;41155;39.768;2.712;2023-02-18T06:11:41;102831.19;;;6.99;77.33
55291;BME280;41155;39.768;2.712;2023-02-18T06:14:07;102806.78;;;6.86;77.22
55291;BME280;41155;39.768;2.712;2023-02-18T06:16:33;102849.47;;;7.04;77.31
55291;BME280;41155;39.768;2.712;2023-02-18T06:18:58;102851.16;;;7.05;77.38
55291;BME280;41155;39.768;2.712;2023-02-18T06:21:24;102826.88;;;6.90;77.15
55291;BME280;41155;39.768;2.712;2023-02-18T06:23:49;102849.13;;;7.07;76.88
55291;BME280;41155;39.768;2.712;2023-02-18T06:26:15;102848.66;;;7.04;76.60
55291;BME280;41155;39.768;2.712;2023-02-18T06:28:40;102843.19;;;6.89;76.51
55291;BME280;41155;39.768;2.712;2023-02-18T06:31:06;102833.19;;;6.74;76.99
55291;BME280;41155;39.768;2.712;2023-02-18T06:33:31;102853.13;;;6.80;77.29
55291;BME280;41155;39.768;2.712;2023-02-18T06:36:02;102844.56;;;6.76;77.49
55291;BME280;41155;39.768;2.712;2023-02-18T06:38:31;102851.34;;;6.56;78.86
55291;BME280;41155;39.768;2.712;2023-02-18T06:40:56;102852.84;;;6.59;79.19
55291;BME280;41155;39.768;2.712;2023-02-18T06:43:25;102842.78;;;6.61;79.83
55291;BME280;41155;39.768;2.712;2023-02-18T06:45:51;102846.75;;;6.73;80.15
55291;BME280;41155;39.768;2.712;2023-02-18T06:48:16;102833.19;;;6.66;79.45
55291;BME280;41155;39.768;2.712;2023-02-18T06:50:42;102855.13;;;6.78;79.60
55291;BME280;41155;39.768;2.712;2023-02-18T06:53:07;102786.31;;;6.38;79.53
55291;BME280;41155;39.768;2.712;2023-02-18T06:55:33;102855.47;;;6.75;79.13
55291;BME280;41155;39.768;2.712;2023-02-18T06:57:58;102854.31;;;6.77;79.16
55291;BME280;41155;39.768;2.712;2023-02-18T07:00:24;102832.88;;;6.61;78.87
55291;BME280;41155;39.768;2.712;2023-02-18T07:02:49;102842.09;;;6.67;77.04
55291;BME280;41155;39.768;2.712;2023-02-18T07:05:15;102836.13;;;6.40;77.75
55291;BME280;41155;39.768;2.712;2023-02-18T07:07:41;102821.56;;;6.34;78.39
55291;BME280;41155;39.768;2.712;2023-02-18T07:10:07;102856.06;;;6.54;78.99
55291;BME280;41155;39.768;2.712;2023-02-18T07:12:33;102871.78;;;6.65;79.05
55291;BME280;41155;39.768;2.712;2023-02-18T07:14:58;102831.94;;;6.46;78.90
55291;BME280;41155;39.768;2.712;2023-02-18T07:17:24;102881.44;;;6.83;79.28
55291;BME280;41155;39.768;2.712;2023-02-18T07:19:49;102875.41;;;6.89;79.28
55291;BME280;41155;39.768;2.712;2023-02-18T07:22:15;102890.50;;;6.90;79.44
55291;BME280;41155;39.768;2.712;2023-02-18T07:24:40;102879.28;;;6.86;78.95
55291;BME280;41155;39.768;2.712;2023-02-18T07:27:06;102895.81;;;7.06;78.88
55291;BME280;41155;39.768;2.712;2023-02-18T07:29:31;102862.81;;;6.89;78.29
55291;BME280;41155;39.768;2.712;2023-02-18T07:31:57;102897.25;;;7.17;78.36
55291;BME280;41155;39.768;2.712;2023-02-18T07:34:22;102880.53;;;7.07;77.99
55291;BME280;41155;39.768;2.712;2023-02-18T07:36:48;102903.31;;;7.19;77.57
55291;BME280;41155;39.768;2.712;2023-02-18T07:39:14;102885.00;;;7.14;77.64
55291;BME280;41155;39.768;2.712;2023-02-18T07:41:40;102883.38;;;7.05;77.40
55291;BME280;41155;39.768;2.712;2023-02-18T07:44:05;102891.88;;;7.17;77.30
55291;BME280;41155;39.768;2.712;2023-02-18T07:46:31;102858.56;;;7.03;76.91
55291;BME280;41155;39.768;2.712;2023-02-18T07:48:57;102874.47;;;7.13;75.93
55291;BME280;41155;39.768;2.712;2023-02-18T07:51:22;102914.00;;;7.35;76.32
55291;BME280;41155;39.768;2.712;2023-02-18T07:53:48;102907.28;;;7.31;76.34
55291;BME280;41155;39.768;2.712;2023-02-18T07:56:13;102903.59;;;7.32;76.74
55291;BME280;41155;39.768;2.712;2023-02-18T07:58:41;102845.28;;;7.01;76.96
55291;BME280;41155;39.768;2.712;2023-02-18T08:01:13;102901.16;;;7.45;76.97
55291;BME280;41155;39.768;2.712;2023-02-18T08:03:39;102909.97;;;7.31;76.83
55291;BME280;41155;39.768;2.712;2023-02-18T08:06:05;102879.16;;;7.11;77.52
55291;BME280;41155;39.768;2.712;2023-02-18T08:08:32;102903.88;;;7.37;78.26
55291;BME280;41155;39.768;2.712;2023-02-18T08:11:00;102909.88;;;7.47;78.25
55291;BME280;41155;39.768;2.712;2023-02-18T08:13:27;102922.56;;;7.62;78.19
55291;BME280;41155;39.768;2.712;2023-02-18T08:15:56;102887.84;;;7.52;77.94
55291;BME280;41155;39.768;2.712;2023-02-18T08:18:24;102884.22;;;7.68;77.93
55291;BME280;41155;39.768;2.712;2023-02-18T08:20:52;102919.09;;;8.22;76.79
55291;BME280;41155;39.768;2.712;2023-02-18T08:23:19;102914.75;;;8.36;75.20
55291;BME280;41155;39.768;2.712;2023-02-18T08:25:46;102927.53;;;9.31;73.10
55291;BME280;41155;39.768;2.712;2023-02-18T08:28:12;102891.94;;;11.26;67.66
55291;BME280;41155;39.768;2.712;2023-02-18T08:30:38;102927.13;;;13.32;61.16
55291;BME280;41155;39.768;2.712;2023-02-18T08:33:03;102920.59;;;14.60;55.76
55291;BME280;41155;39.768;2.712;2023-02-18T08:35:29;102915.06;;;16.12;52.14
55291;BME280;41155;39.768;2.712;2023-02-18T08:37:54;102917.03;;;17.80;47.58
55291;BME280;41155;39.768;2.712;2023-02-18T08:40:20;102906.38;;;19.56;43.91
55291;BME280;41155;39.768;2.712;2023-02-18T08:42:46;102925.34;;;21.17;39.22
55291;BME280;41155;39.768;2.712;2023-02-18T08:45:11;102924.94;;;22.53;36.85
55291;BME280;41155;39.768;2.712;2023-02-18T08:47:36;102900.88;;;23.49;34.30
55291;BME280;41155;39.768;2.712;2023-02-18T08:50:03;102909.94;;;24.52;32.49
55291;BME280;41155;39.768;2.712;2023-02-18T08:52:28;102914.53;;;25.48;31.07
55291;BME280;41155;39.768;2.712;2023-02-18T08:54:55;102918.25;;;26.09;29.53
55291;BME280;41155;39.768;2.712;2023-02-18T08:57:20;102916.47;;;26.32;28.69
55291;BME280;41155;39.768;2.712;2023-02-18T08:59:46;102858.03;;;26.75;27.15
55291;BME280;41155;39.768;2.712;2023-02-18T09:02:12;102844.31;;;27.06;26.88
55291;BME280;41155;39.768;2.712;2023-02-18T09:04:38;102887.53;;;27.07;27.02
55291;BME280;41155;39.768;2.712;2023-02-18T09:07:04;102908.91;;;28.02;26.71
55291;BME280;41155;39.768;2.712;2023-02-18T09:09:29;102893.13;;;28.42;25.71
55291;BME280;41155;39.768;2.712;2023-02-18T09:11:55;102914.59;;;29.08;25.00
55291;BME280;41155;39.768;2.712;2023-02-18T09:14:20;102910.81;;;29.21;24.21
55291;BME280;41155;39.768;2.712;2023-02-18T09:16:46;102916.09;;;29.48;24.06
55291;BME280;41155;39.768;2.712;2023-02-18T09:19:11;102918.06;;;29.57;23.80
55291;BME280;41155;39.768;2.712;2023-02-18T09:21:37;102923.13;;;29.55;23.47
55291;BME280;41155;39.768;2.712;2023-02-18T09:24:06;102913.59;;;29.03;23.93
55291;BME280;41155;39.768;2.712;2023-02-18T09:26:31;102905.19;;;27.84;25.41
55291;BME280;41155;39.768;2.712;2023-02-18T09:28:57;102908.75;;;26.62;27.04
55291;BME280;41155;39.768;2.712;2023-02-18T09:31:25;102914.16;;;25.55;28.45
55291;BME280;41155;39.768;2.712;2023-02-18T09:33:53;102914.22;;;23.27;31.25
55291;BME280;41155;39.768;2.712;2023-02-18T09:36:19;102880.13;;;23.17;31.40
55291;BME280;41155;39.768;2.712;2023-02-18T09:38:49;102881.53;;;22.19;33.27
55291;BME280;41155;39.768;2.712;2023-02-18T09:41:40;102908.28;;;21.05;36.53
55291;BME280;41155;39.768;2.712;2023-02-18T09:44:17;102914.69;;;20.68;37.43
55291;BME280;41155;39.768;2.712;2023-02-18T09:46:55;102891.97;;;19.66;38.46
55291;BME280;41155;39.768;2.712;2023-02-18T09:49:26;102901.00;;;19.17;40.22
55291;BME280;41155;39.768;2.712;2023-02-18T09:51:53;102896.63;;;19.16;40.18
55291;BME280;41155;39.768;2.712;2023-02-18T09:54:20;102895.41;;;18.85;41.10
55291;BME280;41155;39.768;2.712;2023-02-18T09:56:46;102888.78;;;18.42;42.32
55291;BME280;41155;39.768;2.712;2023-02-18T09:59:16;102864.34;;;18.18;42.91
55291;BME280;41155;39.768;2.712;2023-02-18T10:01:43;102869.00;;;18.01;43.36
55291;BME280;41155;39.768;2.712;2023-02-18T10:04:21;102909.53;;;18.77;41.97
55291;BME280;41155;39.768;2.712;2023-02-18T10:06:50;102898.22;;;18.90;41.08
55291;BME280;41155;39.768;2.712;2023-02-18T10:09:22;102866.00;;;18.97;39.37
55291;BME280;41155;39.768;2.712;2023-02-18T10:11:53;102903.56;;;19.78;38.40
55291;BME280;41155;39.768;2.712;2023-02-18T10:14:21;102902.16;;;20.40;37.39
55291;BME280;41155;39.768;2.712;2023-02-18T10:16:48;102853.72;;;22.26;33.59
55291;BME280;41155;39.768;2.712;2023-02-18T10:19:36;102896.16;;;24.95;29.77
55291;BME280;41155;39.768;2.712;2023-02-18T10:22:05;102894.81;;;26.20;27.80
55291;BME280;41155;39.768;2.712;2023-02-18T10:24:34;102897.69;;;27.25;26.81
55291;BME280;41155;39.768;2.712;2023-02-18T10:27:04;102894.81;;;29.70;23.31
55291;BME280;41155;39.768;2.712;2023-02-18T10:29:30;102892.31;;;31.01;22.13
55291;BME280;41155;39.768;2.712;2023-02-18T10:35:14;102893.72;;;33.54;19.39
55291;BME280;41155;39.768;2.712;2023-02-18T10:37:45;102886.38;;;34.73;18.36
55291;BME280;41155;39.768;2.712;2023-02-18T10:43:00;102878.59;;;36.25;17.61
55291;BME280;41155;39.768;2.712;2023-02-18T10:51:14;102856.44;;;38.22;15.26
55291;BME280;41155;39.768;2.712;2023-02-18T10:53:42;102871.03;;;38.98;14.10
55291;BME280;41155;39.768;2.712;2023-02-18T10:56:31;102881.31;;;39.45;14.10
55291;BME280;41155;39.768;2.712;2023-02-18T10:59:23;102880.25;;;38.87;14.49
55291;BME280;41155;39.768;2.712;2023-02-18T11:01:58;102862.81;;;39.76;13.62
55291;BME280;41155;39.768;2.712;2023-02-18T11:04:36;102882.56;;;39.73;13.70
55291;BME280;41155;39.768;2.712;2023-02-18T11:07:05;102874.06;;;40.66;12.89
55291;BME280;41155;39.768;2.712;2023-02-18T11:12:23;102873.22;;;40.73;12.86
55291;BME280;41155;39.768;2.712;2023-02-18T11:15:15;102870.47;;;41.43;12.15
55291;BME280;41155;39.768;2.712;2023-02-18T11:17:44;102873.28;;;41.53;12.04
55291;BME280;41155;39.768;2.712;2023-02-18T11:20:28;102870.09;;;41.37;12.46
55291;BME280;41155;39.768;2.712;2023-02-18T11:22:59;102872.88;;;42.07;11.86
55291;BME280;41155;39.768;2.712;2023-02-18T11:25:39;102857.31;;;42.22;11.43
55291;BME280;41155;39.768;2.712;2023-02-18T11:28:27;102864.84;;;42.40;11.64
55291;BME280;41155;39.768;2.712;2023-02-18T11:30:57;102856.97;;;42.17;12.33
55291;BME280;41155;39.768;2.712;2023-02-18T11:35:56;102864.66;;;40.94;13.08
55291;BME280;41155;39.768;2.712;2023-02-18T11:38:33;102861.56;;;40.46;12.79
55291;BME280;41155;39.768;2.712;2023-02-18T11:41:11;102850.19;;;41.51;12.44
55291;BME280;41155;39.768;2.712;2023-02-18T11:43:45;102808.56;;;41.34;12.35
55291;BME280;41155;39.768;2.712;2023-02-18T11:46:17;102852.59;;;42.50;11.92
55291;BME280;41155;39.768;2.712;2023-02-18T11:48:44;102854.44;;;42.64;11.77
55291;BME280;41155;39.768;2.712;2023-02-18T11:51:23;102850.41;;;42.61;11.67
55291;BME280;41155;39.768;2.712;2023-02-18T11:53:56;102854.03;;;43.27;11.58
55291;BME280;41155;39.768;2.712;2023-02-18T11:56:28;102846.00;;;42.91;11.93
55291;BME280;41155;39.768;2.712;2023-02-18T11:58:54;102845.41;;;42.76;12.41
55291;BME280;41155;39.768;2.712;2023-02-18T12:04:22;102839.44;;;43.25;12.16
55291;BME280;41155;39.768;2.712;2023-02-18T12:09:40;102823.41;;;42.46;11.99
55291;BME280;41155;39.768;2.712;2023-02-18T12:14:53;102812.97;;;42.70;11.91
55291;BME280;41155;39.768;2.712;2023-02-18T12:18:07;102809.19;;;43.11;11.70
55291;BME280;41155;39.768;2.712;2023-02-18T12:20:45;102807.75;;;42.99;12.13
55291;BME280;41155;39.768;2.712;2023-02-18T12:28:48;102795.81;;;42.81;11.88
55291;BME280;41155;39.768;2.712;2023-02-18T12:40:24;102769.81;;;43.09;11.49
55291;BME280;41155;39.768;2.712;2023-02-18T12:56:43;102730.63;;;43.24;11.33
55291;BME280;41155;39.768;2.712;2023-02-18T13:02:20;102730.91;;;42.49;11.79
55291;BME280;41155;39.768;2.712;2023-02-18T13:04:56;102720.72;;;41.34;11.93
55291;BME280;41155;39.768;2.712;2023-02-18T13:15:22;102689.97;;;40.77;12.10
55291;BME280;41155;39.768;2.712;2023-02-18T13:17:56;102679.16;;;40.50;12.64
55291;BME280;41155;39.768;2.712;2023-02-18T13:20:32;102690.56;;;40.32;12.93
55291;BME280;41155;39.768;2.712;2023-02-18T13:23:00;102678.63;;;39.67;13.59
55291;BME280;41155;39.768;2.712;2023-02-18T13:25:27;102661.97;;;39.98;13.21
55291;BME280;41155;39.768;2.712;2023-02-18T13:28:14;102672.28;;;40.51;13.22
55291;BME280;41155;39.768;2.712;2023-02-18T13:31:02;102658.56;;;41.13;12.23
55291;BME280;41155;39.768;2.712;2023-02-18T13:33:46;102670.59;;;40.72;13.46
55291;BME280;41155;39.768;2.712;2023-02-18T13:39:11;102660.19;;;40.51;13.49
55291;BME280;41155;39.768;2.712;2023-02-18T13:41:43;102651.88;;;38.57;14.41
55291;BME280;41155;39.768;2.712;2023-02-18T13:46:57;102643.09;;;39.16;14.24
55291;BME280;41155;39.768;2.712;2023-02-18T13:49:31;102640.25;;;37.86;15.58
55291;BME280;41155;39.768;2.712;2023-02-18T13:51:59;102629.34;;;37.77;15.64
55291;BME280;41155;39.768;2.712;2023-02-18T13:54:33;102628.34;;;38.10;14.99
55291;BME280;41155;39.768;2.712;2023-02-18T13:57:13;102629.22;;;37.56;15.64
55291;BME280;41155;39.768;2.712;2023-02-18T14:00:05;102622.47;;;37.71;15.13
55291;BME280;41155;39.768;2.712;2023-02-18T14:02:57;102614.84;;;36.45;15.95
55291;BME280;41155;39.768;2.712;2023-02-18T14:05:24;102620.75;;;36.33;16.26
55291;BME280;41155;39.768;2.712;2023-02-18T14:08:28;102585.88;;;36.07;16.37
55291;BME280;41155;39.768;2.712;2023-02-18T14:11:29;102609.50;;;35.00;17.04
55291;BME280;41155;39.768;2.712;2023-02-18T14:16:24;102587.94;;;32.57;20.82
55291;BME280;41155;39.768;2.712;2023-02-18T14:19:00;102597.72;;;32.23;21.12
55291;BME280;41155;39.768;2.712;2023-02-18T14:21:39;102607.34;;;31.11;21.68
55291;BME280;41155;39.768;2.712;2023-02-18T14:24:06;102603.47;;;30.79;21.64
55291;BME280;41155;39.768;2.712;2023-02-18T14:26:52;102611.94;;;28.92;24.19
55291;BME280;41155;39.768;2.712;2023-02-18T14:29:26;102615.22;;;28.94;24.63
55291;BME280;41155;39.768;2.712;2023-02-18T14:31:59;102597.09;;;27.92;25.67
55291;BME280;41155;39.768;2.712;2023-02-18T14:34:48;102606.06;;;27.41;26.66
55291;BME280;41155;39.768;2.712;2023-02-18T14:51:28;102597.38;;;24.50;32.25
55291;BME280;41155;39.768;2.712;2023-02-18T14:53:55;102594.31;;;24.33;32.93
55291;BME280;41155;39.768;2.712;2023-02-18T14:56:21;102593.78;;;24.12;33.14
55291;BME280;41155;39.768;2.712;2023-02-18T14:58:51;102593.63;;;24.03;33.48
55291;BME280;41155;39.768;2.712;2023-02-18T15:01:22;102583.63;;;23.88;33.20
55291;BME280;41155;39.768;2.712;2023-02-18T15:03:50;102586.75;;;23.82;34.27
55291;BME280;41155;39.768;2.712;2023-02-18T15:06:29;102580.66;;;23.61;34.83
55291;BME280;41155;39.768;2.712;2023-02-18T15:08:59;102575.28;;;23.45;35.23
55291;BME280;41155;39.768;2.712;2023-02-18T15:11:38;102576.41;;;23.20;35.85
55291;BME280;41155;39.768;2.712;2023-02-18T15:14:13;102560.97;;;22.95;37.02
55291;BME280;41155;39.768;2.712;2023-02-18T15:16:41;102541.50;;;22.82;37.75